Time;durP1;ratioP1;P1;durP2;ratioP2;P2;SDS_P1;SDS_P2;PMS_P1;PMS_P2;Temp;Humidity;BMP_temperature;BMP_pressure;BME280_temperature;BME280_humidity;BME280_pressure;Samples;Min_cycle;Max_cycle;Signal;HPM_P1;HPM_P2
2022/06/20 00:02:12;;;;;;;;;;;12.50;99.90;;;;;;5096579;28;19927;-61
2022/06/20 00:04:38;;;;;;;;;;;12.50;99.90;;;;;;5098200;28;19920;-61
2022/06/20 00:07:04;;;;;;;;;;;12.50;99.90;;;;;;5116479;28;20415;-61
2022/06/20 00:09:29;;;;;;;;;;;12.50;99.90;;;;;;5115633;28;19919;-60
2022/06/20 00:11:55;;;;;;;;;;;12.50;99.90;;;;;;5115996;28;20384;-61
2022/06/20 00:14:21;;;;;;;;;;;12.60;99.90;;;;;;5116313;28;19915;-61
2022/06/20 00:16:47;;;;;;;;;;;12.60;99.90;;;;;;5115603;28;20365;-61
2022/06/20 00:19:13;;;;;;;;;;;12.60;99.90;;;;;;5116083;28;20014;-61
2022/06/20 00:21:40;;;;;;;;;;;12.60;99.90;;;;;;5115840;28;19927;-61
2022/06/20 00:24:06;;;;;;;;;;;12.70;99.90;;;;;;5097662;28;20015;-61
2022/06/20 00:26:33;;;;;;;;;;;12.70;99.90;;;;;;5115980;28;19923;-61
2022/06/20 00:29:01;;;;;;;;;;;12.70;99.90;;;;;;5115893;28;19920;-60
2022/06/20 00:31:27;;;;;;;;;;;12.70;99.90;;;;;;5115176;28;20266;-61
2022/06/20 00:33:52;;;;;;;;;;;12.70;99.90;;;;;;5116204;28;19948;-60
2022/06/20 00:36:18;;;;;;;;;;;12.70;99.90;;;;;;5115071;28;19920;-61
2022/06/20 00:38:46;;;;;;;;;;;12.80;99.90;;;;;;5114639;28;20004;-60
2022/06/20 00:41:15;;;;;;;;;;;12.80;99.90;;;;;;5097538;28;20446;-60
2022/06/20 00:43:42;;;;;;;;;;;12.80;99.90;;;;;;5116075;28;19920;-60
2022/06/20 00:46:09;;;;;;;;;;;12.90;99.90;;;;;;5096714;28;19924;-60
2022/06/20 00:48:39;;;;;;;;;;;12.90;99.90;;;;;;5098761;28;19924;-60
2022/06/20 00:51:07;;;;;;;;;;;12.90;99.90;;;;;;5094872;28;19916;-60
2022/06/20 00:53:37;;;;;;;;;;;12.90;99.90;;;;;;5095163;28;19926;-60
2022/06/20 00:56:08;;;;;;;;;;;12.90;99.90;;;;;;5099156;28;19966;-61
2022/06/20 00:58:37;;;;;;;;;;;13.00;99.90;;;;;;5114832;28;20380;-61
2022/06/20 01:01:03;;;;;;;;;;;13.00;99.90;;;;;;5115645;28;19919;-60
2022/06/20 01:03:33;;;;;;;;;;;13.00;99.90;;;;;;5115796;28;19931;-60
2022/06/20 01:06:02;;;;;;;;;;;13.00;99.90;;;;;;5113805;28;19920;-60
2022/06/20 01:08:30;;;;;;;;;;;13.00;99.90;;;;;;5115310;28;19950;-60
2022/06/20 01:10:58;;;;;;;;;;;13.00;99.90;;;;;;5115536;28;19919;-60
2022/06/20 01:13:26;;;;;;;;;;;13.00;99.90;;;;;;5113924;28;19919;-60
2022/06/20 01:15:53;;;;;;;;;;;12.90;99.90;;;;;;5115410;28;19920;-60
2022/06/20 01:18:21;;;;;;;;;;;12.90;99.90;;;;;;5115107;28;19924;-60
2022/06/20 01:20:48;;;;;;;;;;;12.90;99.90;;;;;;5079013;28;19927;-60
2022/06/20 01:23:32;;;;;;;;;;;12.90;99.90;;;;;;5114924;28;20531;-60
2022/06/20 01:26:11;;;;;;;;;;;12.90;99.90;;;;;;5115061;28;19927;-61
2022/06/20 01:28:39;;;;;;;;;;;12.90;99.90;;;;;;5096716;28;19928;-60
2022/06/20 01:31:04;;;;;;;;;;;12.80;99.90;;;;;;5114835;28;19924;-60
2022/06/20 01:33:30;;;;;;;;;;;12.70;99.90;;;;;;5114218;28;19982;-60
2022/06/20 01:38:42;;;;;;;;;;;12.60;99.90;;;;;;5114887;28;20289;-60
2022/06/20 01:43:55;;;;;;;;;;;12.60;99.90;;;;;;5114628;28;19928;-60
2022/06/20 01:46:21;;;;;;;;;;;12.50;99.90;;;;;;5114822;28;19928;-60
2022/06/20 01:48:49;;;;;;;;;;;12.50;99.90;;;;;;5077313;28;19966;-60
2022/06/20 01:51:20;;;;;;;;;;;12.40;99.90;;;;;;5114254;28;20014;-60
2022/06/20 01:53:46;;;;;;;;;;;12.30;99.90;;;;;;5096209;28;20006;-60
2022/06/20 01:56:11;;;;;;;;;;;12.30;99.90;;;;;;5112448;28;20063;-60
2022/06/20 01:58:40;;;;;;;;;;;12.30;99.90;;;;;;5093878;28;19923;-60
2022/06/20 02:01:06;;;;;;;;;;;12.20;99.90;;;;;;5114542;28;19920;-60
2022/06/20 02:03:34;;;;;;;;;;;12.20;99.90;;;;;;5113313;28;19972;-60
2022/06/20 02:06:00;;;;;;;;;;;12.10;99.90;;;;;;5114195;28;19927;-60
2022/06/20 02:08:26;;;;;;;196.48;187.07;;;12.10;99.90;;;;;;5094551;28;20336;-60
2022/06/20 02:11:04;;;;;;;210.75;200.57;;;12.00;99.90;;;;;;5113783;28;20039;-60
2022/06/20 02:13:34;;;;;;;211.90;201.77;;;12.10;99.90;;;;;;5095264;28;20059;-60
2022/06/20 02:16:04;;;;;;;241.30;229.23;;;11.90;99.90;;;;;;5112853;28;20047;-60
2022/06/20 02:18:33;;;;;;;203.40;193.48;;;11.90;99.90;;;;;;5113737;28;20503;-60
2022/06/20 02:21:03;;;;;;;240.57;228.90;;;11.80;99.90;;;;;;5113276;28;20044;-60
2022/06/20 02:23:31;;;;;;;206.68;197.05;;;11.80;99.90;;;;;;5094725;28;20501;-60
2022/06/20 02:26:00;;;;;;;231.60;220.07;;;11.80;99.90;;;;;;5109175;28;20062;-60
2022/06/20 02:28:39;;;;;;;225.93;214.48;;;11.70;99.90;;;;;;5113369;28;20089;-60
2022/06/20 02:31:06;;;;;;;224.27;213.50;;;11.50;99.90;;;;;;5113069;28;20031;-60
2022/06/20 02:33:32;;;;;;;;;;;11.50;99.90;;;;;;5094945;28;20079;-60
2022/06/20 02:35:58;;;;;;;;;;;11.40;99.90;;;;;;5113250;28;19959;-60
2022/06/20 02:38:24;;;;;;;;;;;11.40;99.90;;;;;;5094514;28;19927;-60
2022/06/20 02:40:52;;;;;;;303.80;288.00;;;11.40;99.90;;;;;;5113325;28;19920;-60
2022/06/20 02:43:31;;;;;;;280.85;266.33;;;11.40;99.90;;;;;;5094409;28;20070;-60
2022/06/20 02:45:58;;;;;;;270.42;255.93;;;11.30;99.90;;;;;;5113313;28;20039;-60
2022/06/20 02:48:27;;;;;;;343.98;325.25;;;11.20;99.90;;;;;;5094918;28;20493;-60
2022/06/20 02:50:54;;;;;;;;;;;11.10;99.90;;;;;;5112213;28;20044;-61
2022/06/20 02:53:23;;;;;;;;;;;11.00;99.90;;;;;;5113719;28;19919;-60
2022/06/20 02:55:49;;;;;;;;;;;10.90;99.90;;;;;;5113603;28;20014;-60
2022/06/20 02:58:19;;;;;;;;;;;10.90;99.90;;;;;;5104481;28;19920;-60
2022/06/20 03:00:50;;;;;;;;;;;11.00;99.90;;;;;;5103636;28;20006;-60
2022/06/20 03:03:20;;;;;;;;;;;11.00;99.90;;;;;;5113646;28;19972;-60
2022/06/20 03:05:45;;;;;;;;;;;11.00;99.90;;;;;;5112501;28;19927;-60
2022/06/20 03:08:13;;;;;;;;;;;11.10;99.90;;;;;;5095203;28;19920;-60
2022/06/20 03:10:41;;;;;;;;;;;11.10;99.90;;;;;;5113683;28;19926;-60
2022/06/20 03:13:07;;;;;;;;;;;11.10;99.90;;;;;;5112102;28;19927;-60
2022/06/20 03:15:33;;;;;;;;;;;11.20;99.90;;;;;;5113339;28;19920;-60
2022/06/20 03:17:59;;;;;;;208.88;198.50;;;11.30;99.90;;;;;;5094663;28;19915;-60
2022/06/20 03:20:26;;;;;;;220.77;209.82;;;11.30;99.90;;;;;;5111807;28;20044;-60
2022/06/20 03:22:57;;;;;;;;;;;11.30;99.90;;;;;;5094893;28;20040;-60
2022/06/20 03:25:22;;;;;;;;;;;11.40;99.90;;;;;;5113301;28;19923;-60
2022/06/20 03:27:51;;;;;;;;;;;11.30;99.90;;;;;;5111774;28;19923;-60
2022/06/20 03:30:19;;;;;;;;;;;11.30;99.90;;;;;;5113450;28;19958;-60
2022/06/20 03:32:45;;;;;;;;;;;11.30;99.90;;;;;;5112550;28;20365;-60
2022/06/20 03:35:10;;;;;;;;;;;11.30;99.90;;;;;;5112704;28;19931;-60
2022/06/20 03:37:37;;;;;;;;;;;11.20;99.90;;;;;;5113549;28;19920;-60
2022/06/20 03:40:03;;;;;;;;;;;11.20;99.90;;;;;;5093973;28;20002;-60
2022/06/20 03:42:29;;;;;;;312.23;296.05;;;11.20;99.90;;;;;;5112886;28;19920;-60
2022/06/20 03:44:57;;;;;;;354.27;334.83;;;11.10;99.90;;;;;;5112424;28;20485;-60
2022/06/20 03:47:27;;;;;;;316.52;299.67;;;11.10;99.90;;;;;;5112171;28;20083;-60
2022/06/20 03:49:56;;;;;;;366.55;347.27;;;11.10;99.90;;;;;;5112274;28;20036;-60
2022/06/20 03:52:24;;;;;;;;;;;11.10;99.90;;;;;;5113301;28;20058;-60
2022/06/20 03:54:58;;;;;;;;;;;11.10;99.90;;;;;;5111770;28;19965;-60
2022/06/20 03:57:34;;;;;;;328.60;311.90;;;11.10;99.90;;;;;;5109868;28;20361;-60
2022/06/20 04:00:06;;;;;;;331.90;314.52;;;11.10;99.90;;;;;;5092369;28;20101;-60
2022/06/20 04:02:44;;;;;;;353.65;334.70;;;11.00;99.90;;;;;;5102175;28;20055;-60
2022/06/20 04:05:18;;;;;;;357.15;337.70;;;11.00;99.90;;;;;;5094070;28;20059;-60
2022/06/20 04:07:48;;;;;;;;;;;11.00;99.90;;;;;;5112588;28;20051;-60
2022/06/20 04:13:06;;;;;;;;;;;11.00;99.90;;;;;;5097737;28;20396;-60
2022/06/20 04:15:47;;;;;;;;;;;11.00;99.90;;;;;;5115569;28;19959;-60
2022/06/20 04:18:29;;;;;;;;;;;11.00;99.90;;;;;;5116551;28;19973;-60
2022/06/20 04:21:01;;;;;;;;;;;11.00;99.90;;;;;;5116099;28;19920;-60
2022/06/20 04:23:36;;;;;;;;;;;11.10;99.90;;;;;;5115618;28;19920;-60
2022/06/20 04:26:10;;;;;;;;;;;11.20;99.90;;;;;;5115900;28;19930;-60
2022/06/20 04:28:39;;;;;;;;;;;11.30;99.90;;;;;;5115994;28;19923;-60
2022/06/20 04:31:19;;;;;;;;;;;11.40;99.90;;;;;;5115731;28;20011;-60
2022/06/20 04:33:45;;;;;;;;;;;11.50;99.90;;;;;;5116004;28;19919;-60
2022/06/20 04:36:22;;;;;;;;;;;11.60;99.90;;;;;;5115434;28;19919;-60
2022/06/20 04:38:52;;;;;;;;;;;11.70;99.90;;;;;;5115890;28;19970;-60
2022/06/20 04:41:20;;;;;;;;;;;11.80;99.90;;;;;;5115614;28;19986;-60
2022/06/20 04:43:52;;;;;;;;;;;11.80;99.90;;;;;;5115286;28;20007;-60
2022/06/20 04:46:21;;;;;;;;;;;11.90;99.90;;;;;;5115470;28;20399;-60
2022/06/20 04:48:48;;;;;;;;;;;12.00;99.90;;;;;;5097085;28;19924;-60
2022/06/20 04:51:16;;;;;;;;;;;12.10;99.90;;;;;;5115329;28;19919;-60
2022/06/20 04:53:44;;;;;;;;;;;12.20;99.90;;;;;;5115848;28;20006;-60
2022/06/20 04:56:11;;;;;;;;;;;12.30;99.90;;;;;;5096592;28;19926;-60
2022/06/20 04:58:41;;;;;;;;;;;12.40;99.90;;;;;;5114947;28;20381;-60
2022/06/20 05:01:08;;;;;;;;;;;12.50;99.90;;;;;;5115819;28;19915;-60
2022/06/20 05:03:36;;;;;;;;;;;12.40;99.90;;;;;;5114895;28;20024;-60
2022/06/20 05:06:05;;;;;;;;;;;12.50;99.90;;;;;;5114952;28;19919;-60
2022/06/20 05:08:34;;;;;;;;;;;12.50;99.90;;;;;;5114647;28;19919;-60
2022/06/20 05:11:03;;;;;;;;;;;12.50;99.90;;;;;;5114581;28;20421;-60
2022/06/20 05:13:43;;;;;;;;;;;12.60;99.90;;;;;;5114237;28;19923;-60
2022/06/20 05:16:14;;;;;;;;;;;12.60;99.90;;;;;;5114443;28;20292;-60
2022/06/20 05:18:42;;;;;;;;;;;12.70;99.90;;;;;;5113421;28;19920;-60
2022/06/20 05:21:12;;;;;;;;;;;12.80;99.90;;;;;;5114283;28;19982;-60
2022/06/20 05:23:40;;;;;;;;;;;13.00;99.90;;;;;;5113951;28;19972;-60
2022/06/20 05:26:08;;;;;;;;;;;13.10;99.90;;;;;;5113526;28;20266;-60
2022/06/20 05:28:36;;;;;;;;;;;13.10;99.90;;;;;;5079265;28;19970;-60
2022/06/20 05:31:01;;;;;;;;;;;13.20;99.90;;;;;;5114975;28;19920;-60
2022/06/20 05:33:31;;;;;;;;;;;13.30;99.90;;;;;;5113229;28;20018;-60
2022/06/20 05:36:01;;;;;;;;;;;13.50;99.90;;;;;;5112257;28;19919;-60
2022/06/20 05:38:29;;;;;;;;;;;13.60;99.90;;;;;;5113870;28;25056;-60
2022/06/20 05:40:57;;;;;;;;;;;13.60;99.90;;;;;;5112068;28;20335;-60
2022/06/20 05:43:23;;;;;;;;;;;13.80;99.90;;;;;;5113950;28;19930;-60
2022/06/20 05:45:52;;;;;;;;;;;13.90;99.90;;;;;;5113824;28;19920;-60
2022/06/20 05:48:20;;;;;;;401.65;376.63;;;14.00;99.90;;;;;;5112514;28;25067;-60
2022/06/20 05:50:55;;;;;;;306.52;291.23;;;14.00;99.90;;;;;;5096043;28;20084;-60
2022/06/20 05:53:32;;;;;;;205.65;195.90;;;14.10;99.90;;;;;;5094984;28;20054;-60
2022/06/20 05:56:02;;;;;;;288.50;274.40;;;14.10;99.90;;;;;;5113931;28;20044;-60
2022/06/20 05:58:31;;;;;;;450.10;425.80;;;14.20;99.90;;;;;;5095479;28;20052;-60
2022/06/20 06:01:02;;;;;;;299.27;285.20;;;14.20;99.90;;;;;;5113515;28;20050;-60
2022/06/20 06:03:41;;;;;;;289.92;276.50;;;14.10;99.90;;;;;;5113682;28;20052;-60
2022/06/20 06:06:20;;;;;;;189.95;180.93;;;14.10;99.90;;;;;;5113611;28;20077;-60
2022/06/20 06:08:53;;;;;;;225.52;215.45;;;14.00;99.90;;;;;;5112954;28;20493;-60
2022/06/20 06:11:32;;;;;;;224.13;213.73;;;14.00;99.90;;;;;;5113590;28;20473;-60
2022/06/20 06:14:01;;;;;;;246.65;235.25;;;14.20;99.90;;;;;;5095438;28;20055;-60
2022/06/20 06:16:48;;;;;;;317.90;302.63;;;14.50;99.90;;;;;;5112705;28;20050;-61
2022/06/20 06:19:14;;;;;;;372.05;352.77;;;14.60;99.90;;;;;;5113879;28;20082;-60
2022/06/20 06:21:41;;;;;;;299.92;285.52;;;14.80;99.90;;;;;;5112818;28;20075;-60
2022/06/20 06:24:11;;;;;;;333.45;316.60;;;14.80;99.90;;;;;;5113166;28;20046;-60
2022/06/20 06:26:39;;;;;;;298.83;284.42;;;14.80;99.90;;;;;;5095322;28;20051;-60
2022/06/20 06:29:16;;;;;;;266.83;254.27;;;14.80;99.90;;;;;;5112384;28;20474;-60
2022/06/20 06:31:46;;;;;;;316.00;300.65;;;14.90;99.90;;;;;;5113024;28;20046;-60
2022/06/20 06:34:27;;;;;;;267.35;254.73;;;15.00;99.90;;;;;;5112758;28;20054;-60
2022/06/20 06:36:59;;;;;;;351.17;333.85;;;15.10;99.90;;;;;;5112542;28;20528;-60
2022/06/20 06:39:31;;;;;;;296.48;282.25;;;15.10;99.90;;;;;;5112900;28;20050;-60
2022/06/20 06:42:01;;;;;;;294.52;280.92;;;15.10;99.90;;;;;;5094750;28;20117;-60
2022/06/20 06:44:38;;;;;;;232.43;221.80;;;15.20;99.90;;;;;;5112496;28;20035;-60
2022/06/20 06:47:13;;;;;;;249.25;237.75;;;15.30;99.90;;;;;;5112955;28;20050;-60
2022/06/20 06:49:45;;;;;;;228.73;218.23;;;15.20;99.90;;;;;;5111842;28;20383;-60
2022/06/20 06:52:38;;;;;;;176.77;168.55;;;15.30;99.90;;;;;;5094876;28;20115;-60
2022/06/20 06:55:17;;;;;;;276.30;263.05;;;15.20;99.90;;;;;;5113157;28;20043;-60
2022/06/20 06:57:47;;;;;;;505.38;472.63;;;15.20;99.90;;;;;;5109137;28;20052;-60
2022/06/20 07:00:30;;;;;;;932.22;657.15;;;15.10;99.90;;;;;;5108698;28;20096;-60
2022/06/20 07:03:03;;;;;;;456.67;431.40;;;14.90;99.90;;;;;;5094509;28;20048;-61
2022/06/20 07:05:37;;;;;;;368.92;350.77;;;15.00;99.90;;;;;;5112484;28;20055;-61
2022/06/20 07:08:12;;;;;;;363.52;345.70;;;15.20;99.90;;;;;;5112518;28;20497;-60
2022/06/20 07:10:55;;;;;;;383.08;364.58;;;15.60;99.90;;;;;;5111970;28;20455;-60
2022/06/20 07:13:27;;;;;;;441.25;419.70;;;16.00;99.90;;;;;;5112752;28;20126;-61
2022/06/20 07:15:58;;;;;;;469.88;446.00;;;16.40;99.90;;;;;;5109934;28;20122;-61
2022/06/20 07:18:35;;;;;;;519.45;491.92;;;16.70;99.90;;;;;;5111338;28;20513;-60
2022/06/20 07:21:02;;;;;;;477.27;444.80;;;16.70;99.90;;;;;;5110954;28;20040;-60
2022/06/20 07:23:27;;;;;;;612.28;573.92;;;16.40;99.90;;;;;;5112326;28;20055;-60
2022/06/20 07:25:53;;;;;;;1600.30;843.13;;;16.00;99.90;;;;;;5111326;28;20084;-60
2022/06/20 07:28:40;;;;;;;1999.90;999.90;;;15.70;99.90;;;;;;5112487;28;20390;-60
2022/06/20 07:31:21;;;;;;;1999.90;999.90;;;15.50;99.90;;;;;;5092437;28;20092;-60
2022/06/20 07:34:00;;;;;;;1999.90;999.90;;;15.30;99.90;;;;;;5110295;28;20081;-60
2022/06/20 07:36:33;;;;;;;1999.90;999.90;;;15.10;99.90;;;;;;5112468;28;20048;-60
2022/06/20 07:39:05;;;;;;;1999.90;999.90;;;15.10;99.90;;;;;;5111561;28;20082;-60
2022/06/20 07:41:42;;;;;;;1999.90;999.90;;;15.20;99.90;;;;;;5112628;28;20059;-60
2022/06/20 07:44:21;;;;;;;1999.90;999.90;;;15.50;99.90;;;;;;5093566;28;20083;-61
2022/06/20 07:47:00;;;;;;;1999.90;999.90;;;15.90;99.90;;;;;;5111840;28;20050;-60
2022/06/20 07:49:32;;;;;;;1999.90;999.90;;;16.40;99.90;;;;;;5113463;28;20047;-61
2022/06/20 07:52:01;;;;;;;;;;;16.70;99.90;;;;;;5116212;28;20082;-61
2022/06/20 07:54:32;;;;;;;1999.90;999.90;;;16.80;99.90;;;;;;5114944;28;19919;-61
2022/06/20 07:57:04;;;;;;;1999.90;999.90;;;16.90;99.90;;;;;;5116465;28;20055;-60
2022/06/20 07:59:36;;;;;;;1999.90;999.90;;;17.00;99.90;;;;;;5115824;28;20047;-60
2022/06/20 08:02:03;;;;;;;1999.90;999.90;;;17.20;99.90;;;;;;5114092;28;20054;-60
2022/06/20 08:04:32;;;;;;;1999.90;999.90;;;17.20;99.90;;;;;;5097659;28;20054;-60
2022/06/20 08:07:16;;;;;;;1999.90;999.90;;;16.90;99.90;;;;;;5096854;28;20081;-60
2022/06/20 08:09:52;;;;;;;1999.90;999.90;;;16.50;99.90;;;;;;5114817;28;20078;-60
2022/06/20 08:12:24;;;;;;;1999.90;999.90;;;16.60;99.90;;;;;;5115786;28;20100;-60
2022/06/20 08:14:58;;;;;;;1999.90;999.90;;;16.70;99.90;;;;;;5115127;28;20063;-60
2022/06/20 08:17:25;;;;;;;1999.90;999.90;;;16.90;99.90;;;;;;5114794;28;20494;-60
2022/06/20 08:19:51;;;;;;;1999.90;999.90;;;17.00;99.90;;;;;;5097125;28;20474;-60
2022/06/20 08:22:17;;;;;;;1999.90;999.90;;;17.20;99.90;;;;;;5115082;28;20135;-61
2022/06/20 08:24:49;;;;;;;1999.90;999.90;;;17.40;99.90;;;;;;5115330;28;20366;-61
2022/06/20 08:27:23;;;;;;;1999.90;999.90;;;17.50;99.90;;;;;;5095600;28;20052;-61
2022/06/20 08:30:02;;;;;;;1999.90;999.90;;;17.60;99.90;;;;;;5114269;28;20048;-60
2022/06/20 08:32:43;;;;;;;1999.90;999.90;;;17.60;99.90;;;;;;5114587;28;20515;-61
2022/06/20 08:35:21;;;;;;;1999.90;999.90;;;17.60;99.90;;;;;;5095600;28;20051;-60
2022/06/20 08:37:57;;;;;;;1999.90;999.90;;;17.70;99.90;;;;;;5113834;28;20059;-60
2022/06/20 08:40:42;;;;;;;1999.90;999.90;;;17.80;99.90;;;;;;5095645;28;20048;-60
2022/06/20 08:43:38;;;;;;;1999.90;999.90;;;17.90;99.90;;;;;;5114989;28;20569;-60
2022/06/20 08:46:04;;;;;;;1999.90;999.90;;;18.00;99.80;;;;;;5114792;28;20599;-60
2022/06/20 08:49:06;;;;;;;1999.90;999.90;;;18.10;99.90;;;;;;5114941;28;20113;-61
2022/06/20 08:52:06;;;;;;;1999.90;999.90;;;17.90;99.90;;;;;;5096835;28;20628;-60
2022/06/20 08:54:54;;;;;;;1999.90;999.90;;;17.60;99.90;;;;;;5114720;28;20056;-60
2022/06/20 08:57:48;;;;;;;1999.90;999.90;;;17.30;99.90;;;;;;5113991;28;20576;-60
2022/06/20 09:00:25;;;;;;;1999.90;999.90;;;17.30;99.90;;;;;;5115070;28;20043;-60
2022/06/20 09:02:58;;;;;;;1999.90;999.90;;;17.30;99.90;;;;;;5114809;28;20047;-61
2022/06/20 09:05:34;;;;;;;1999.90;999.90;;;17.30;99.90;;;;;;5114106;28;20409;-60
2022/06/20 09:08:22;;;;;;;1999.90;999.90;;;17.20;99.90;;;;;;5096735;28;20040;-60
2022/06/20 09:11:08;;;;;;;1999.90;999.90;;;17.20;99.90;;;;;;5114493;28;20056;-60
2022/06/20 09:13:43;;;;;;;1999.90;999.90;;;17.40;99.90;;;;;;5107762;28;20038;-61
2022/06/20 09:16:23;;;;;;;1999.90;999.90;;;17.60;99.90;;;;;;5094163;28;20066;-60
2022/06/20 09:18:58;;;;;;;1999.90;999.90;;;17.70;99.90;;;;;;5080064;28;20051;-61
2022/06/20 09:21:46;;;;;;;1999.90;999.90;;;17.70;99.90;;;;;;5114044;28;20043;-60
2022/06/20 09:24:18;;;;;;;1999.90;999.90;;;17.50;99.90;;;;;;5113552;28;20078;-60
2022/06/20 09:26:46;;;;;;;1999.90;999.90;;;17.20;99.90;;;;;;5114253;28;20047;-60
2022/06/20 09:29:36;;;;;;;1999.90;999.90;;;17.10;99.90;;;;;;5113096;28;20035;-60
2022/06/20 09:32:27;;;;;;;1999.90;999.90;;;17.00;99.90;;;;;;5077706;28;20048;-60
2022/06/20 09:34:52;;;;;;;1999.90;999.90;;;17.10;99.90;;;;;;5094152;28;20071;-61
2022/06/20 09:37:31;;;;;;;1999.90;999.90;;;17.40;99.90;;;;;;5091619;28;20454;-61
2022/06/20 09:40:05;;;;;;;1999.90;999.90;;;17.70;99.70;;;;;;5112521;28;20100;-61
2022/06/20 09:42:37;;;;;;;1999.90;999.90;;;17.60;99.90;;;;;;5113802;28;20054;-60
2022/06/20 09:45:14;;;;;;;1999.90;999.90;;;17.40;99.40;;;;;;5077303;28;20035;-60
2022/06/20 09:47:52;;;;;;;1999.90;999.90;;;17.30;99.90;;;;;;5112745;28;20177;-60
2022/06/20 09:50:27;;;;;;;1999.90;999.90;;;17.50;99.90;;;;;;5114138;28;20393;-60
2022/06/20 09:53:15;;;;;;;1999.90;999.90;;;17.60;99.90;;;;;;5112802;28;20055;-60
2022/06/20 09:55:50;;;;;;;1999.90;999.90;;;17.80;99.90;;;;;;5113209;28;20044;-61
2022/06/20 09:58:18;;;;;;;1999.90;999.90;;;18.00;99.90;;;;;;5113941;28;20058;-60
2022/06/20 10:00:55;;;;;;;1999.90;999.90;;;18.10;99.90;;;;;;5109379;28;20162;-60
2022/06/20 10:03:38;;;;;;;1999.90;999.90;;;18.00;99.90;;;;;;5094379;28;20051;-61
2022/06/20 10:06:27;;;;;;;1999.90;999.90;;;17.80;99.90;;;;;;5109819;28;20394;-60
2022/06/20 10:09:21;;;;;;;1999.90;999.90;;;17.70;99.90;;;;;;5110517;28;20050;-60
2022/06/20 10:12:13;;;;;;;1999.90;999.90;;;17.80;99.90;;;;;;5096219;28;20031;-61
2022/06/20 10:14:55;;;;;;;1999.90;999.90;;;17.80;99.90;;;;;;5093638;28;20063;-61
2022/06/20 10:18:01;;;;;;;1999.90;999.90;;;17.90;99.90;;;;;;5113285;28;20035;-61
2022/06/20 10:20:31;;;;;;;1999.90;999.90;;;18.20;99.90;;;;;;5111549;28;20035;-61
2022/06/20 10:23:37;;;;;;;1999.90;999.90;;;18.50;99.90;;;;;;5112524;28;20043;-61
2022/06/20 10:26:14;;;;;;;1999.90;999.90;;;18.40;99.90;;;;;;5095028;28;20107;-61
2022/06/20 10:28:55;;;;;;;1999.90;999.90;;;18.00;99.60;;;;;;5112257;28;20055;-61
2022/06/20 10:31:39;;;;;;;1999.90;999.90;;;17.90;99.90;;;;;;5112553;28;20062;-60
2022/06/20 10:34:07;;;;;;;1999.90;999.90;;;18.20;99.90;;;;;;5112389;28;20125;-61
2022/06/20 10:36:49;;;;;;;1999.90;999.90;;;18.60;98.10;;;;;;5090215;28;20040;-61
2022/06/20 10:39:22;;;;;;;1999.90;999.90;;;18.80;98.90;;;;;;5113557;28;20083;-60
2022/06/20 10:41:53;;;;;;;1999.90;999.90;;;19.10;98.90;;;;;;5112116;28;20055;-61
2022/06/20 10:44:58;;;;;;;1999.90;999.90;;;19.20;98.10;;;;;;5113069;28;20047;-61
2022/06/20 10:47:46;;;;;;;1999.90;999.90;;;19.50;98.40;;;;;;5093288;28;20040;-61
2022/06/20 10:50:32;;;;;;;1999.90;999.90;;;19.90;96.40;;;;;;5109114;28;20086;-61
2022/06/20 10:53:19;;;;;;;1999.90;999.90;;;19.90;96.90;;;;;;5113181;28;20101;-61
2022/06/20 10:56:03;;;;;;;1999.90;999.90;;;20.00;96.50;;;;;;5112478;28;20055;-61
2022/06/20 10:58:44;;;;;;;1999.90;999.90;;;20.20;94.10;;;;;;5088903;28;20492;-61
2022/06/20 11:01:31;;;;;;;1999.90;999.90;;;20.20;93.70;;;;;;5111539;28;20062;-61
2022/06/20 11:04:16;;;;;;;1999.90;999.90;;;20.40;93.80;;;;;;5111867;28;20545;-61
2022/06/20 11:07:02;;;;;;;1999.90;999.90;;;20.50;92.20;;;;;;5093837;28;20052;-61
2022/06/20 11:09:43;;;;;;;1999.90;999.90;;;20.40;93.10;;;;;;5112213;28;20409;-61
2022/06/20 11:12:22;;;;;;;1999.90;999.90;;;20.00;94.00;;;;;;5093546;28;20546;-61
2022/06/20 11:15:10;;;;;;;1999.90;999.90;;;19.80;94.40;;;;;;5094131;28;20051;-61
2022/06/20 11:17:45;;;;;;;1999.90;999.90;;;19.30;94.00;;;;;;5099540;28;20409;-61
2022/06/20 11:20:19;;;;;;;1999.90;999.90;;;19.10;95.80;;;;;;5113696;28;20385;-61
2022/06/20 11:23:01;;;;;;;1999.90;999.90;;;19.50;95.10;;;;;;5116760;28;20221;-61
2022/06/20 11:25:51;;;;;;;1999.90;999.90;;;20.10;95.20;;;;;;5115212;28;20040;-61
2022/06/20 11:28:43;;;;;;;1999.90;999.90;;;20.20;93.60;;;;;;5096075;28;20048;-61
2022/06/20 11:31:21;;;;;;;1999.90;999.90;;;19.50;93.30;;;;;;5095535;28;20048;-61
2022/06/20 11:34:01;;;;;;;1999.90;999.90;;;19.50;94.00;;;;;;5111977;28;20054;-61
2022/06/20 11:36:40;;;;;;;1999.90;999.90;;;19.60;95.40;;;;;;5116188;28;20044;-61
2022/06/20 11:39:32;;;;;;;1999.90;999.90;;;19.10;93.70;;;;;;5116086;28;20043;-60
2022/06/20 11:42:38;;;;;;;1999.90;999.90;;;18.90;96.50;;;;;;5116281;28;20044;-61
2022/06/20 11:45:27;;;;;;;1999.90;999.90;;;19.20;93.00;;;;;;5115381;28;20114;-61
2022/06/20 11:48:04;;;;;;;1999.90;999.90;;;18.80;94.50;;;;;;5097082;27;20040;-61
2022/06/20 11:50:43;;;;;;;1999.90;999.90;;;18.80;95.60;;;;;;5115277;27;20047;-61
2022/06/20 11:53:39;;;;;;;1999.90;999.90;;;19.20;94.50;;;;;;5115842;28;20089;-61
2022/06/20 11:56:31;;;;;;;1999.90;999.90;;;19.10;95.90;;;;;;5116318;28;20043;-61
2022/06/20 11:59:02;;;;;;;1999.90;999.90;;;19.40;93.70;;;;;;5116222;28;20039;-61
2022/06/20 12:01:36;;;;;;;1999.90;999.90;;;19.70;95.10;;;;;;5116096;28;20047;-61
2022/06/20 12:04:10;;;;;;;1999.90;999.90;;;19.90;92.00;;;;;;5116327;28;20122;-61
2022/06/20 12:06:52;;;;;;;1999.90;999.90;;;19.70;93.30;;;;;;5115240;28;20126;-61
2022/06/20 12:09:35;;;;;;;1999.90;999.90;;;19.60;94.10;;;;;;5097495;28;20047;-61
2022/06/20 12:12:32;;;;;;;1999.90;999.90;;;19.20;93.30;;;;;;5116013;28;20056;-61
2022/06/20 12:15:25;;;;;;;1999.90;999.90;;;18.90;95.00;;;;;;5115582;28;20055;-60
2022/06/20 12:17:51;;;;;;;1999.90;999.90;;;18.40;96.50;;;;;;5115739;28;20496;-61
2022/06/20 12:23:24;;;;;;;1999.90;999.90;;;18.00;96.80;;;;;;5113224;28;20048;-61
2022/06/20 12:26:09;;;;;;;1999.90;999.90;;;18.10;97.50;;;;;;5101503;28;20557;-61
2022/06/20 12:28:38;;;;;;;1999.90;999.90;;;18.50;98.20;;;;;;5114460;28;20447;-61
2022/06/20 12:31:24;;;;;;;1999.90;999.90;;;18.80;96.80;;;;;;5115158;28;20107;-61
2022/06/20 12:33:57;;;;;;;1999.90;999.90;;;19.00;94.50;;;;;;5097020;28;20490;-61
2022/06/20 12:36:27;;;;;;;1999.90;999.90;;;19.20;94.40;;;;;;5113566;28;20031;-60
2022/06/20 12:39:02;;;;;;;1999.90;999.90;;;19.00;94.20;;;;;;5115674;28;20149;-61
2022/06/20 12:41:33;;;;;;;1999.90;999.90;;;18.60;95.80;;;;;;5114291;28;20085;-61
2022/06/20 12:44:16;;;;;;;1999.90;999.90;;;18.60;96.30;;;;;;5114372;28;20054;-61
2022/06/20 12:46:57;;;;;;;;;;;18.70;98.50;;;;;;5115764;28;20058;-61
2022/06/20 12:49:36;;;;;;;1999.90;999.90;;;18.50;98.40;;;;;;5114371;28;19958;-61
2022/06/20 12:52:21;;;;;;;1999.90;999.90;;;18.10;99.30;;;;;;5114416;28;20401;-61
2022/06/20 12:54:56;;;;;;;1999.90;999.90;;;17.80;99.90;;;;;;5114741;28;20444;-61
2022/06/20 12:57:23;;;;;;;1999.90;999.90;;;17.70;99.90;;;;;;5095147;28;20358;-60
2022/06/20 13:00:16;;;;;;;1999.90;999.90;;;17.60;99.90;;;;;;5114276;28;20039;-60
2022/06/20 13:03:00;;;;;;;1999.90;999.90;;;17.80;99.90;;;;;;5094003;28;20051;-61
2022/06/20 13:05:51;;;;;;;1999.90;999.90;;;18.00;99.90;;;;;;5113820;28;20513;-61
2022/06/20 13:08:22;;;;;;;1999.90;999.90;;;18.00;99.90;;;;;;5114848;28;20533;-61
2022/06/20 13:11:07;;;;;;;1999.90;999.90;;;17.90;99.90;;;;;;5113937;28;20043;-61
2022/06/20 13:14:09;;;;;;;1999.90;999.90;;;17.70;99.90;;;;;;5104990;28;20047;-61
2022/06/20 13:16:59;;;;;;;1999.90;999.90;;;17.60;99.90;;;;;;5107194;28;20130;-60
2022/06/20 13:19:59;;;;;;;1999.90;999.90;;;17.50;99.90;;;;;;5108599;28;20040;-60
2022/06/20 13:22:38;;;;;;;1999.90;999.90;;;17.50;99.90;;;;;;5090429;28;20049;-61
2022/06/20 13:25:30;;;;;;;1999.90;999.90;;;17.70;99.90;;;;;;5095879;28;20071;-61
2022/06/20 13:28:12;;;;;;;1999.90;999.90;;;18.00;99.90;;;;;;5113456;28;20048;-60
2022/06/20 13:30:55;;;;;;;1999.90;999.90;;;17.90;99.90;;;;;;5113921;28;20047;-61
2022/06/20 13:33:37;;;;;;;1999.90;999.90;;;17.60;99.90;;;;;;5114670;28;20328;-61
2022/06/20 13:36:33;;;;;;;1999.90;999.90;;;17.30;99.90;;;;;;5114610;28;20058;-61